sensor_id;sensor_type;location;lat;lon;timestamp;P1;durP1;ratioP1;P2;durP2;ratioP2
9420;SDS011;4749;51.398;5.466;2023-05-10T00:00:28;21.33;;;14.85;;
9420;SDS011;4749;51.398;5.466;2023-05-10T00:02:55;22.85;;;15.55;;
9420;SDS011;4749;51.398;5.466;2023-05-10T00:05:22;21.73;;;14.02;;
9420;SDS011;4749;51.398;5.466;2023-05-10T00:07:49;22.05;;;14.65;;
9420;SDS011;4749;51.398;5.466;2023-05-10T00:10:17;22.02;;;14.38;;
9420;SDS011;4749;51.398;5.466;2023-05-10T00:12:44;21.30;;;14.70;;
9420;SDS011;4749;51.398;5.466;2023-05-10T00:15:11;27.70;;;15.73;;
9420;SDS011;4749;51.398;5.466;2023-05-10T00:17:39;22.70;;;14.52;;
9420;SDS011;4749;51.398;5.466;2023-05-10T00:20:06;20.35;;;14.05;;
9420;SDS011;4749;51.398;5.466;2023-05-10T00:22:34;26.95;;;16.35;;
9420;SDS011;4749;51.398;5.466;2023-05-10T00:25:01;31.00;;;17.40;;
9420;SDS011;4749;51.398;5.466;2023-05-10T00:27:29;27.85;;;17.13;;
9420;SDS011;4749;51.398;5.466;2023-05-10T00:29:56;30.92;;;18.00;;
9420;SDS011;4749;51.398;5.466;2023-05-10T00:32:23;28.23;;;17.33;;
9420;SDS011;4749;51.398;5.466;2023-05-10T00:34:50;31.85;;;19.10;;
9420;SDS011;4749;51.398;5.466;2023-05-10T00:37:17;29.77;;;18.83;;
9420;SDS011;4749;51.398;5.466;2023-05-10T00:39:44;33.55;;;19.38;;
9420;SDS011;4749;51.398;5.466;2023-05-10T00:42:11;30.23;;;17.80;;
9420;SDS011;4749;51.398;5.466;2023-05-10T00:44:39;33.20;;;19.73;;
9420;SDS011;4749;51.398;5.466;2023-05-10T00:47:06;33.95;;;18.92;;
9420;SDS011;4749;51.398;5.466;2023-05-10T00:49:34;33.92;;;18.30;;
9420;SDS011;4749;51.398;5.466;2023-05-10T00:52:02;33.55;;;19.35;;
9420;SDS011;4749;51.398;5.466;2023-05-10T00:54:30;33.80;;;18.77;;
9420;SDS011;4749;51.398;5.466;2023-05-10T00:56:57;32.90;;;19.08;;
9420;SDS011;4749;51.398;5.466;2023-05-10T00:59:24;31.67;;;18.15;;
9420;SDS011;4749;51.398;5.466;2023-05-10T01:01:52;35.08;;;18.45;;
9420;SDS011;4749;51.398;5.466;2023-05-10T01:04:20;32.63;;;19.65;;
9420;SDS011;4749;51.398;5.466;2023-05-10T01:06:52;33.03;;;18.58;;
9420;SDS011;4749;51.398;5.466;2023-05-10T01:09:20;34.35;;;19.50;;
9420;SDS011;4749;51.398;5.466;2023-05-10T01:11:48;32.67;;;19.85;;
9420;SDS011;4749;51.398;5.466;2023-05-10T01:14:17;39.15;;;19.77;;
9420;SDS011;4749;51.398;5.466;2023-05-10T01:16:46;35.45;;;19.80;;
9420;SDS011;4749;51.398;5.466;2023-05-10T01:19:25;35.03;;;19.90;;
9420;SDS011;4749;51.398;5.466;2023-05-10T01:31:06;36.72;;;20.00;;
9420;SDS011;4749;51.398;5.466;2023-05-10T01:34:02;35.47;;;19.83;;
9420;SDS011;4749;51.398;5.466;2023-05-10T01:36:48;34.53;;;19.92;;
9420;SDS011;4749;51.398;5.466;2023-05-10T01:42:13;38.22;;;20.30;;
9420;SDS011;4749;51.398;5.466;2023-05-10T01:50:08;35.58;;;20.08;;
9420;SDS011;4749;51.398;5.466;2023-05-10T01:52:42;38.95;;;21.38;;
9420;SDS011;4749;51.398;5.466;2023-05-10T01:55:16;36.00;;;21.13;;
9420;SDS011;4749;51.398;5.466;2023-05-10T01:57:46;43.05;;;21.88;;
9420;SDS011;4749;51.398;5.466;2023-05-10T02:00:18;43.63;;;22.45;;
9420;SDS011;4749;51.398;5.466;2023-05-10T02:02:47;40.03;;;22.08;;
9420;SDS011;4749;51.398;5.466;2023-05-10T02:05:16;36.47;;;20.58;;
9420;SDS011;4749;51.398;5.466;2023-05-10T02:07:44;36.38;;;22.05;;
9420;SDS011;4749;51.398;5.466;2023-05-10T02:10:12;39.80;;;22.15;;
9420;SDS011;4749;51.398;5.466;2023-05-10T02:12:41;38.30;;;22.70;;
9420;SDS011;4749;51.398;5.466;2023-05-10T02:15:12;40.70;;;23.33;;
9420;SDS011;4749;51.398;5.466;2023-05-10T02:17:47;42.28;;;23.40;;
9420;SDS011;4749;51.398;5.466;2023-05-10T02:20:15;44.35;;;23.55;;
9420;SDS011;4749;51.398;5.466;2023-05-10T02:22:45;40.65;;;22.67;;
9420;SDS011;4749;51.398;5.466;2023-05-10T02:25:15;44.60;;;24.27;;
9420;SDS011;4749;51.398;5.466;2023-05-10T02:27:45;43.70;;;24.23;;
9420;SDS011;4749;51.398;5.466;2023-05-10T02:30:14;45.85;;;25.88;;
9420;SDS011;4749;51.398;5.466;2023-05-10T02:32:44;45.88;;;26.50;;
9420;SDS011;4749;51.398;5.466;2023-05-10T02:35:11;47.40;;;26.52;;
9420;SDS011;4749;51.398;5.466;2023-05-10T02:37:39;47.17;;;27.20;;
9420;SDS011;4749;51.398;5.466;2023-05-10T02:40:07;49.13;;;26.98;;
9420;SDS011;4749;51.398;5.466;2023-05-10T02:42:36;53.88;;;28.83;;
9420;SDS011;4749;51.398;5.466;2023-05-10T02:45:07;50.22;;;27.27;;
9420;SDS011;4749;51.398;5.466;2023-05-10T02:47:38;51.58;;;29.48;;
9420;SDS011;4749;51.398;5.466;2023-05-10T02:50:06;50.33;;;27.13;;
9420;SDS011;4749;51.398;5.466;2023-05-10T02:52:37;53.95;;;28.67;;
9420;SDS011;4749;51.398;5.466;2023-05-10T02:55:25;55.03;;;28.17;;
9420;SDS011;4749;51.398;5.466;2023-05-10T02:57:59;49.35;;;27.55;;
9420;SDS011;4749;51.398;5.466;2023-05-10T03:00:28;52.70;;;28.63;;
9420;SDS011;4749;51.398;5.466;2023-05-10T03:02:55;55.42;;;28.83;;
9420;SDS011;4749;51.398;5.466;2023-05-10T03:05:23;48.58;;;28.35;;
9420;SDS011;4749;51.398;5.466;2023-05-10T03:07:50;52.72;;;27.63;;
9420;SDS011;4749;51.398;5.466;2023-05-10T03:10:18;50.85;;;27.73;;
9420;SDS011;4749;51.398;5.466;2023-05-10T03:13:12;48.17;;;27.85;;
9420;SDS011;4749;51.398;5.466;2023-05-10T03:16:06;45.13;;;25.92;;
9420;SDS011;4749;51.398;5.466;2023-05-10T03:18:44;47.20;;;26.33;;
9420;SDS011;4749;51.398;5.466;2023-05-10T03:21:21;50.50;;;25.98;;
9420;SDS011;4749;51.398;5.466;2023-05-10T03:23:58;46.80;;;25.17;;
9420;SDS011;4749;51.398;5.466;2023-05-10T03:26:33;46.50;;;25.85;;
9420;SDS011;4749;51.398;5.466;2023-05-10T03:29:04;50.63;;;25.42;;
9420;SDS011;4749;51.398;5.466;2023-05-10T03:31:32;43.38;;;24.60;;
9420;SDS011;4749;51.398;5.466;2023-05-10T03:33:59;44.60;;;23.65;;
9420;SDS011;4749;51.398;5.466;2023-05-10T03:36:27;42.67;;;23.42;;
9420;SDS011;4749;51.398;5.466;2023-05-10T03:38:54;43.55;;;23.98;;
9420;SDS011;4749;51.398;5.466;2023-05-10T03:41:21;43.85;;;24.08;;
9420;SDS011;4749;51.398;5.466;2023-05-10T03:43:48;44.13;;;23.38;;
9420;SDS011;4749;51.398;5.466;2023-05-10T03:46:15;46.38;;;25.13;;
9420;SDS011;4749;51.398;5.466;2023-05-10T03:48:42;51.45;;;24.33;;
9420;SDS011;4749;51.398;5.466;2023-05-10T03:51:10;49.40;;;24.63;;
9420;SDS011;4749;51.398;5.466;2023-05-10T03:53:37;46.75;;;24.48;;
9420;SDS011;4749;51.398;5.466;2023-05-10T03:56:04;51.55;;;25.15;;
9420;SDS011;4749;51.398;5.466;2023-05-10T03:58:31;43.55;;;22.15;;
9420;SDS011;4749;51.398;5.466;2023-05-10T04:00:58;49.58;;;25.02;;
9420;SDS011;4749;51.398;5.466;2023-05-10T04:03:25;53.35;;;25.50;;
9420;SDS011;4749;51.398;5.466;2023-05-10T04:05:59;47.53;;;24.10;;
9420;SDS011;4749;51.398;5.466;2023-05-10T04:08:28;52.92;;;25.38;;
9420;SDS011;4749;51.398;5.466;2023-05-10T04:11:04;58.90;;;26.63;;
9420;SDS011;4749;51.398;5.466;2023-05-10T04:13:35;65.10;;;28.77;;
9420;SDS011;4749;51.398;5.466;2023-05-10T04:16:03;64.57;;;28.73;;
9420;SDS011;4749;51.398;5.466;2023-05-10T04:18:31;63.30;;;29.63;;
9420;SDS011;4749;51.398;5.466;2023-05-10T04:20:58;68.20;;;31.27;;
9420;SDS011;4749;51.398;5.466;2023-05-10T04:23:26;69.63;;;32.08;;
9420;SDS011;4749;51.398;5.466;2023-05-10T04:26:00;72.22;;;31.30;;
9420;SDS011;4749;51.398;5.466;2023-05-10T04:28:28;68.97;;;31.20;;
9420;SDS011;4749;51.398;5.466;2023-05-10T04:31:08;71.85;;;30.92;;
9420;SDS011;4749;51.398;5.466;2023-05-10T04:33:36;66.05;;;30.83;;
9420;SDS011;4749;51.398;5.466;2023-05-10T04:36:03;73.63;;;32.13;;
9420;SDS011;4749;51.398;5.466;2023-05-10T04:38:31;74.32;;;31.58;;
9420;SDS011;4749;51.398;5.466;2023-05-10T04:41:05;79.50;;;32.55;;
9420;SDS011;4749;51.398;5.466;2023-05-10T04:43:34;64.82;;;30.90;;
9420;SDS011;4749;51.398;5.466;2023-05-10T04:46:02;70.43;;;30.83;;
9420;SDS011;4749;51.398;5.466;2023-05-10T04:48:30;67.07;;;32.67;;
9420;SDS011;4749;51.398;5.466;2023-05-10T04:50:57;70.00;;;32.33;;
9420;SDS011;4749;51.398;5.466;2023-05-10T04:53:24;68.97;;;31.30;;
9420;SDS011;4749;51.398;5.466;2023-05-10T04:55:52;67.47;;;31.58;;
9420;SDS011;4749;51.398;5.466;2023-05-10T04:58:19;68.65;;;29.95;;
9420;SDS011;4749;51.398;5.466;2023-05-10T05:00:46;67.68;;;31.88;;
9420;SDS011;4749;51.398;5.466;2023-05-10T05:03:13;65.80;;;31.20;;
9420;SDS011;4749;51.398;5.466;2023-05-10T05:05:40;63.63;;;29.75;;
9420;SDS011;4749;51.398;5.466;2023-05-10T05:08:07;62.70;;;31.52;;
9420;SDS011;4749;51.398;5.466;2023-05-10T05:10:35;58.42;;;28.58;;
9420;SDS011;4749;51.398;5.466;2023-05-10T05:13:02;57.70;;;28.80;;
9420;SDS011;4749;51.398;5.466;2023-05-10T05:15:29;51.20;;;27.60;;
9420;SDS011;4749;51.398;5.466;2023-05-10T05:17:57;51.42;;;26.27;;
9420;SDS011;4749;51.398;5.466;2023-05-10T05:20:24;50.75;;;26.30;;
9420;SDS011;4749;51.398;5.466;2023-05-10T05:22:51;45.83;;;24.45;;
9420;SDS011;4749;51.398;5.466;2023-05-10T05:25:18;44.42;;;24.80;;
9420;SDS011;4749;51.398;5.466;2023-05-10T05:27:45;42.85;;;23.92;;
9420;SDS011;4749;51.398;5.466;2023-05-10T05:30:12;39.92;;;22.92;;
9420;SDS011;4749;51.398;5.466;2023-05-10T05:32:40;37.67;;;21.42;;
9420;SDS011;4749;51.398;5.466;2023-05-10T05:35:07;40.42;;;21.90;;
9420;SDS011;4749;51.398;5.466;2023-05-10T05:37:34;37.63;;;21.42;;
9420;SDS011;4749;51.398;5.466;2023-05-10T05:40:01;34.80;;;21.73;;
9420;SDS011;4749;51.398;5.466;2023-05-10T05:42:30;33.72;;;19.58;;
9420;SDS011;4749;51.398;5.466;2023-05-10T05:44:57;35.35;;;20.70;;
9420;SDS011;4749;51.398;5.466;2023-05-10T05:47:25;33.03;;;20.38;;
9420;SDS011;4749;51.398;5.466;2023-05-10T05:49:52;33.78;;;19.85;;
9420;SDS011;4749;51.398;5.466;2023-05-10T05:52:19;33.58;;;19.33;;
9420;SDS011;4749;51.398;5.466;2023-05-10T05:54:47;33.53;;;20.15;;
9420;SDS011;4749;51.398;5.466;2023-05-10T05:57:14;32.70;;;19.08;;
9420;SDS011;4749;51.398;5.466;2023-05-10T05:59:41;31.20;;;18.92;;
9420;SDS011;4749;51.398;5.466;2023-05-10T06:02:12;29.85;;;18.52;;
9420;SDS011;4749;51.398;5.466;2023-05-10T06:04:39;29.23;;;18.40;;
9420;SDS011;4749;51.398;5.466;2023-05-10T06:07:10;30.90;;;19.85;;
9420;SDS011;4749;51.398;5.466;2023-05-10T06:09:37;29.48;;;18.05;;
9420;SDS011;4749;51.398;5.466;2023-05-10T06:12:04;26.15;;;17.20;;
9420;SDS011;4749;51.398;5.466;2023-05-10T06:14:31;27.67;;;17.55;;
9420;SDS011;4749;51.398;5.466;2023-05-10T06:16:58;31.85;;;17.65;;
9420;SDS011;4749;51.398;5.466;2023-05-10T06:19:26;30.13;;;18.65;;
9420;SDS011;4749;51.398;5.466;2023-05-10T06:21:53;30.65;;;18.40;;
9420;SDS011;4749;51.398;5.466;2023-05-10T06:24:20;30.42;;;18.02;;
9420;SDS011;4749;51.398;5.466;2023-05-10T06:26:48;25.25;;;17.48;;
9420;SDS011;4749;51.398;5.466;2023-05-10T06:29:16;28.60;;;17.90;;
9420;SDS011;4749;51.398;5.466;2023-05-10T06:31:43;28.70;;;18.50;;
9420;SDS011;4749;51.398;5.466;2023-05-10T06:34:10;28.85;;;18.38;;
9420;SDS011;4749;51.398;5.466;2023-05-10T06:36:38;26.83;;;17.45;;
9420;SDS011;4749;51.398;5.466;2023-05-10T06:39:05;28.25;;;17.92;;
9420;SDS011;4749;51.398;5.466;2023-05-10T06:41:33;27.80;;;18.15;;
9420;SDS011;4749;51.398;5.466;2023-05-10T06:44:00;29.00;;;18.25;;
9420;SDS011;4749;51.398;5.466;2023-05-10T06:46:27;29.13;;;17.55;;
9420;SDS011;4749;51.398;5.466;2023-05-10T06:48:54;25.02;;;17.95;;
9420;SDS011;4749;51.398;5.466;2023-05-10T06:51:21;25.88;;;17.27;;
9420;SDS011;4749;51.398;5.466;2023-05-10T06:53:48;29.73;;;18.23;;
9420;SDS011;4749;51.398;5.466;2023-05-10T06:56:15;25.27;;;18.20;;
9420;SDS011;4749;51.398;5.466;2023-05-10T06:58:42;26.30;;;17.60;;
9420;SDS011;4749;51.398;5.466;2023-05-10T07:01:09;26.60;;;17.70;;
9420;SDS011;4749;51.398;5.466;2023-05-10T07:03:37;27.02;;;18.40;;
9420;SDS011;4749;51.398;5.466;2023-05-10T07:06:04;25.33;;;17.83;;
9420;SDS011;4749;51.398;5.466;2023-05-10T07:08:41;23.65;;;17.35;;
9420;SDS011;4749;51.398;5.466;2023-05-10T07:11:08;25.38;;;16.98;;
9420;SDS011;4749;51.398;5.466;2023-05-10T07:13:35;24.73;;;18.00;;
9420;SDS011;4749;51.398;5.466;2023-05-10T07:16:02;24.75;;;17.15;;
9420;SDS011;4749;51.398;5.466;2023-05-10T07:18:30;21.55;;;16.80;;
9420;SDS011;4749;51.398;5.466;2023-05-10T07:20:57;26.52;;;15.45;;
9420;SDS011;4749;51.398;5.466;2023-05-10T07:23:24;22.30;;;16.38;;
9420;SDS011;4749;51.398;5.466;2023-05-10T07:25:51;22.95;;;15.90;;
9420;SDS011;4749;51.398;5.466;2023-05-10T07:28:19;20.95;;;15.48;;
9420;SDS011;4749;51.398;5.466;2023-05-10T07:30:46;19.55;;;14.60;;
9420;SDS011;4749;51.398;5.466;2023-05-10T07:33:14;20.17;;;14.70;;
9420;SDS011;4749;51.398;5.466;2023-05-10T07:35:42;20.63;;;15.00;;
9420;SDS011;4749;51.398;5.466;2023-05-10T07:38:09;19.55;;;13.95;;
9420;SDS011;4749;51.398;5.466;2023-05-10T07:40:39;17.13;;;12.77;;
9420;SDS011;4749;51.398;5.466;2023-05-10T07:43:06;19.67;;;12.77;;
9420;SDS011;4749;51.398;5.466;2023-05-10T07:45:33;14.68;;;11.00;;
9420;SDS011;4749;51.398;5.466;2023-05-10T07:48:01;15.88;;;10.82;;
9420;SDS011;4749;51.398;5.466;2023-05-10T07:50:28;15.38;;;10.90;;
9420;SDS011;4749;51.398;5.466;2023-05-10T07:52:55;13.30;;;9.45;;
9420;SDS011;4749;51.398;5.466;2023-05-10T07:55:22;12.27;;;8.98;;
9420;SDS011;4749;51.398;5.466;2023-05-10T07:57:50;11.63;;;8.27;;
9420;SDS011;4749;51.398;5.466;2023-05-10T08:00:17;12.13;;;8.60;;
9420;SDS011;4749;51.398;5.466;2023-05-10T08:02:46;14.23;;;8.98;;
9420;SDS011;4749;51.398;5.466;2023-05-10T08:05:13;11.35;;;7.75;;
9420;SDS011;4749;51.398;5.466;2023-05-10T08:07:41;9.75;;;7.63;;
9420;SDS011;4749;51.398;5.466;2023-05-10T08:10:09;13.07;;;8.07;;
9420;SDS011;4749;51.398;5.466;2023-05-10T08:12:37;9.80;;;7.40;;
9420;SDS011;4749;51.398;5.466;2023-05-10T08:15:05;8.18;;;6.55;;
9420;SDS011;4749;51.398;5.466;2023-05-10T08:17:33;9.48;;;6.68;;
9420;SDS011;4749;51.398;5.466;2023-05-10T08:20:00;10.43;;;6.28;;
9420;SDS011;4749;51.398;5.466;2023-05-10T08:22:27;9.27;;;5.88;;
9420;SDS011;4749;51.398;5.466;2023-05-10T08:24:54;12.00;;;6.20;;
9420;SDS011;4749;51.398;5.466;2023-05-10T08:27:22;13.80;;;7.70;;
9420;SDS011;4749;51.398;5.466;2023-05-10T08:29:49;10.18;;;6.90;;
9420;SDS011;4749;51.398;5.466;2023-05-10T08:32:16;8.05;;;6.38;;
9420;SDS011;4749;51.398;5.466;2023-05-10T08:34:44;9.82;;;6.43;;
9420;SDS011;4749;51.398;5.466;2023-05-10T08:37:11;13.50;;;6.82;;
9420;SDS011;4749;51.398;5.466;2023-05-10T08:39:40;14.27;;;7.07;;
9420;SDS011;4749;51.398;5.466;2023-05-10T08:42:07;13.18;;;6.72;;
9420;SDS011;4749;51.398;5.466;2023-05-10T08:44:35;8.48;;;6.22;;
9420;SDS011;4749;51.398;5.466;2023-05-10T08:47:06;7.85;;;6.03;;
9420;SDS011;4749;51.398;5.466;2023-05-10T08:49:35;8.50;;;6.05;;
9420;SDS011;4749;51.398;5.466;2023-05-10T08:52:04;9.77;;;6.20;;
9420;SDS011;4749;51.398;5.466;2023-05-10T08:54:32;11.82;;;6.18;;
9420;SDS011;4749;51.398;5.466;2023-05-10T08:57:01;6.93;;;5.43;;
9420;SDS011;4749;51.398;5.466;2023-05-10T08:59:29;10.13;;;6.32;;
9420;SDS011;4749;51.398;5.466;2023-05-10T09:01:57;9.55;;;6.63;;
9420;SDS011;4749;51.398;5.466;2023-05-10T09:04:25;10.40;;;5.85;;
9420;SDS011;4749;51.398;5.466;2023-05-10T09:06:55;12.00;;;6.60;;
9420;SDS011;4749;51.398;5.466;2023-05-10T09:09:23;9.18;;;5.90;;
9420;SDS011;4749;51.398;5.466;2023-05-10T09:11:51;8.32;;;6.07;;
9420;SDS011;4749;51.398;5.466;2023-05-10T09:14:19;10.00;;;6.13;;
9420;SDS011;4749;51.398;5.466;2023-05-10T09:16:46;9.60;;;5.88;;
9420;SDS011;4749;51.398;5.466;2023-05-10T09:19:14;10.85;;;6.60;;
9420;SDS011;4749;51.398;5.466;2023-05-10T09:21:41;10.40;;;7.13;;
9420;SDS011;4749;51.398;5.466;2023-05-10T09:24:09;8.50;;;5.72;;
9420;SDS011;4749;51.398;5.466;2023-05-10T09:26:41;11.85;;;6.70;;
9420;SDS011;4749;51.398;5.466;2023-05-10T09:29:14;9.43;;;6.35;;
9420;SDS011;4749;51.398;5.466;2023-05-10T09:31:50;10.10;;;6.68;;
9420;SDS011;4749;51.398;5.466;2023-05-10T09:34:19;10.35;;;6.43;;
9420;SDS011;4749;51.398;5.466;2023-05-10T09:36:58;7.88;;;6.53;;
9420;SDS011;4749;51.398;5.466;2023-05-10T09:39:34;12.43;;;7.68;;
9420;SDS011;4749;51.398;5.466;2023-05-10T09:42:09;9.18;;;6.95;;
9420;SDS011;4749;51.398;5.466;2023-05-10T09:44:36;10.23;;;7.53;;
9420;SDS011;4749;51.398;5.466;2023-05-10T09:47:04;9.00;;;6.72;;
9420;SDS011;4749;51.398;5.466;2023-05-10T09:49:31;8.85;;;6.82;;
9420;SDS011;4749;51.398;5.466;2023-05-10T09:52:00;8.57;;;6.63;;
9420;SDS011;4749;51.398;5.466;2023-05-10T09:54:31;8.43;;;6.63;;
9420;SDS011;4749;51.398;5.466;2023-05-10T09:57:00;10.13;;;6.15;;
9420;SDS011;4749;51.398;5.466;2023-05-10T09:59:28;6.97;;;6.28;;
9420;SDS011;4749;51.398;5.466;2023-05-10T10:01:56;6.60;;;5.90;;
9420;SDS011;4749;51.398;5.466;2023-05-10T10:04:26;7.63;;;5.43;;
9420;SDS011;4749;51.398;5.466;2023-05-10T10:07:00;6.55;;;4.97;;
9420;SDS011;4749;51.398;5.466;2023-05-10T10:09:31;6.65;;;5.05;;
9420;SDS011;4749;51.398;5.466;2023-05-10T10:12:00;7.53;;;4.90;;
9420;SDS011;4749;51.398;5.466;2023-05-10T10:14:28;5.40;;;4.20;;
9420;SDS011;4749;51.398;5.466;2023-05-10T10:16:56;7.28;;;4.55;;
9420;SDS011;4749;51.398;5.466;2023-05-10T10:19:36;5.55;;;3.63;;
9420;SDS011;4749;51.398;5.466;2023-05-10T10:22:03;6.35;;;3.58;;
9420;SDS011;4749;51.398;5.466;2023-05-10T10:24:32;5.80;;;3.17;;
9420;SDS011;4749;51.398;5.466;2023-05-10T10:27:01;5.40;;;3.58;;
9420;SDS011;4749;51.398;5.466;2023-05-10T10:29:50;4.05;;;3.20;;
9420;SDS011;4749;51.398;5.466;2023-05-10T10:35:42;3.63;;;2.97;;
9420;SDS011;4749;51.398;5.466;2023-05-10T10:38:12;4.50;;;3.95;;
9420;SDS011;4749;51.398;5.466;2023-05-10T10:40:40;6.97;;;5.22;;
9420;SDS011;4749;51.398;5.466;2023-05-10T10:43:23;8.15;;;6.60;;
9420;SDS011;4749;51.398;5.466;2023-05-10T10:49:10;9.70;;;8.52;;
9420;SDS011;4749;51.398;5.466;2023-05-10T10:51:37;9.15;;;7.82;;
9420;SDS011;4749;51.398;5.466;2023-05-10T10:54:09;10.80;;;8.57;;
9420;SDS011;4749;51.398;5.466;2023-05-10T10:56:37;8.70;;;7.80;;
9420;SDS011;4749;51.398;5.466;2023-05-10T10:59:04;11.00;;;8.75;;
9420;SDS011;4749;51.398;5.466;2023-05-10T11:01:34;13.07;;;9.85;;
9420;SDS011;4749;51.398;5.466;2023-05-10T11:06:34;14.00;;;10.23;;
9420;SDS011;4749;51.398;5.466;2023-05-10T11:09:06;12.43;;;9.88;;
9420;SDS011;4749;51.398;5.466;2023-05-10T11:11:35;12.13;;;10.15;;
9420;SDS011;4749;51.398;5.466;2023-05-10T11:14:14;11.23;;;9.63;;
9420;SDS011;4749;51.398;5.466;2023-05-10T11:16:50;9.63;;;8.63;;
9420;SDS011;4749;51.398;5.466;2023-05-10T11:19:17;10.68;;;8.18;;
9420;SDS011;4749;51.398;5.466;2023-05-10T11:24:31;10.32;;;8.18;;
9420;SDS011;4749;51.398;5.466;2023-05-10T11:26:59;12.32;;;10.07;;
9420;SDS011;4749;51.398;5.466;2023-05-10T11:29:27;14.15;;;11.40;;
9420;SDS011;4749;51.398;5.466;2023-05-10T11:31:56;13.25;;;10.52;;
9420;SDS011;4749;51.398;5.466;2023-05-10T11:34:26;15.68;;;10.93;;
9420;SDS011;4749;51.398;5.466;2023-05-10T11:37:01;13.90;;;11.55;;
9420;SDS011;4749;51.398;5.466;2023-05-10T11:39:29;16.80;;;11.90;;
9420;SDS011;4749;51.398;5.466;2023-05-10T11:41:58;14.48;;;10.35;;
9420;SDS011;4749;51.398;5.466;2023-05-10T11:44:29;11.68;;;10.35;;
9420;SDS011;4749;51.398;5.466;2023-05-10T11:47:00;12.88;;;10.95;;
9420;SDS011;4749;51.398;5.466;2023-05-10T11:49:28;13.35;;;10.00;;
9420;SDS011;4749;51.398;5.466;2023-05-10T11:52:07;11.55;;;9.93;;
9420;SDS011;4749;51.398;5.466;2023-05-10T11:54:37;12.80;;;10.02;;
9420;SDS011;4749;51.398;5.466;2023-05-10T11:57:04;12.20;;;10.05;;
9420;SDS011;4749;51.398;5.466;2023-05-10T11:59:31;13.95;;;10.05;;
9420;SDS011;4749;51.398;5.466;2023-05-10T12:01:58;13.25;;;9.30;;
9420;SDS011;4749;51.398;5.466;2023-05-10T12:04:26;13.93;;;11.05;;
9420;SDS011;4749;51.398;5.466;2023-05-10T12:06:55;13.23;;;9.70;;
9420;SDS011;4749;51.398;5.466;2023-05-10T12:09:23;12.13;;;10.18;;
9420;SDS011;4749;51.398;5.466;2023-05-10T12:12:08;14.10;;;10.10;;
9420;SDS011;4749;51.398;5.466;2023-05-10T12:14:36;14.25;;;9.38;;
9420;SDS011;4749;51.398;5.466;2023-05-10T12:17:03;11.85;;;9.75;;
9420;SDS011;4749;51.398;5.466;2023-05-10T12:19:37;12.50;;;9.18;;
9420;SDS011;4749;51.398;5.466;2023-05-10T12:22:05;12.85;;;9.55;;
9420;SDS011;4749;51.398;5.466;2023-05-10T12:24:36;10.93;;;8.65;;
9420;SDS011;4749;51.398;5.466;2023-05-10T12:27:05;12.32;;;9.40;;
9420;SDS011;4749;51.398;5.466;2023-05-10T12:29:34;14.63;;;9.43;;
9420;SDS011;4749;51.398;5.466;2023-05-10T12:32:02;11.82;;;9.88;;
9420;SDS011;4749;51.398;5.466;2023-05-10T12:34:35;16.10;;;10.55;;
9420;SDS011;4749;51.398;5.466;2023-05-10T12:37:08;14.02;;;9.35;;
9420;SDS011;4749;51.398;5.466;2023-05-10T12:39:38;13.00;;;9.52;;
9420;SDS011;4749;51.398;5.466;2023-05-10T12:42:10;15.73;;;9.25;;
9420;SDS011;4749;51.398;5.466;2023-05-10T12:44:38;10.43;;;8.50;;
9420;SDS011;4749;51.398;5.466;2023-05-10T12:47:06;11.10;;;8.73;;
9420;SDS011;4749;51.398;5.466;2023-05-10T12:49:33;11.55;;;8.77;;
9420;SDS011;4749;51.398;5.466;2023-05-10T12:52:01;12.07;;;9.30;;
9420;SDS011;4749;51.398;5.466;2023-05-10T12:54:28;12.98;;;8.30;;
9420;SDS011;4749;51.398;5.466;2023-05-10T12:56:55;12.40;;;8.77;;
9420;SDS011;4749;51.398;5.466;2023-05-10T12:59:23;8.95;;;5.70;;
9420;SDS011;4749;51.398;5.466;2023-05-10T13:01:51;9.75;;;5.65;;
9420;SDS011;4749;51.398;5.466;2023-05-10T13:04:18;6.40;;;4.68;;
9420;SDS011;4749;51.398;5.466;2023-05-10T13:06:46;5.38;;;3.40;;
9420;SDS011;4749;51.398;5.466;2023-05-10T13:09:13;4.93;;;3.80;;
9420;SDS011;4749;51.398;5.466;2023-05-10T13:11:40;4.03;;;3.30;;
9420;SDS011;4749;51.398;5.466;2023-05-10T13:14:07;5.65;;;4.55;;
9420;SDS011;4749;51.398;5.466;2023-05-10T13:16:34;4.88;;;4.40;;
9420;SDS011;4749;51.398;5.466;2023-05-10T13:19:01;6.35;;;5.03;;
9420;SDS011;4749;51.398;5.466;2023-05-10T13:21:29;5.97;;;5.38;;
9420;SDS011;4749;51.398;5.466;2023-05-10T13:23:56;7.10;;;5.30;;
9420;SDS011;4749;51.398;5.466;2023-05-10T13:26:24;6.55;;;5.25;;
9420;SDS011;4749;51.398;5.466;2023-05-10T13:28:51;6.82;;;5.93;;
9420;SDS011;4749;51.398;5.466;2023-05-10T13:31:18;6.47;;;5.07;;
9420;SDS011;4749;51.398;5.466;2023-05-10T13:33:46;7.93;;;5.13;;
9420;SDS011;4749;51.398;5.466;2023-05-10T13:36:13;5.63;;;5.13;;
9420;SDS011;4749;51.398;5.466;2023-05-10T13:38:41;8.27;;;6.60;;
9420;SDS011;4749;51.398;5.466;2023-05-10T13:41:08;11.65;;;6.75;;
9420;SDS011;4749;51.398;5.466;2023-05-10T13:43:37;10.18;;;7.68;;
9420;SDS011;4749;51.398;5.466;2023-05-10T13:46:05;11.60;;;8.95;;
9420;SDS011;4749;51.398;5.466;2023-05-10T13:48:32;11.27;;;9.63;;
9420;SDS011;4749;51.398;5.466;2023-05-10T13:51:01;16.88;;;9.90;;
9420;SDS011;4749;51.398;5.466;2023-05-10T13:53:28;16.02;;;10.00;;
9420;SDS011;4749;51.398;5.466;2023-05-10T13:55:55;11.40;;;9.10;;
9420;SDS011;4749;51.398;5.466;2023-05-10T13:58:23;7.97;;;6.95;;
9420;SDS011;4749;51.398;5.466;2023-05-10T14:00:50;8.95;;;6.32;;
9420;SDS011;4749;51.398;5.466;2023-05-10T14:03:17;8.45;;;5.82;;
9420;SDS011;4749;51.398;5.466;2023-05-10T14:05:44;7.80;;;5.72;;
9420;SDS011;4749;51.398;5.466;2023-05-10T14:08:11;8.93;;;5.10;;
9420;SDS011;4749;51.398;5.466;2023-05-10T14:10:40;7.07;;;4.72;;
9420;SDS011;4749;51.398;5.466;2023-05-10T14:13:08;7.18;;;4.43;;
9420;SDS011;4749;51.398;5.466;2023-05-10T14:15:35;5.82;;;4.00;;
9420;SDS011;4749;51.398;5.466;2023-05-10T14:18:02;8.75;;;5.30;;
9420;SDS011;4749;51.398;5.466;2023-05-10T14:20:29;5.90;;;4.55;;
9420;SDS011;4749;51.398;5.466;2023-05-10T14:22:58;4.85;;;3.60;;
9420;SDS011;4749;51.398;5.466;2023-05-10T14:25:26;5.57;;;4.25;;
9420;SDS011;4749;51.398;5.466;2023-05-10T14:27:53;4.65;;;3.80;;
9420;SDS011;4749;51.398;5.466;2023-05-10T14:30:20;4.60;;;3.40;;
9420;SDS011;4749;51.398;5.466;2023-05-10T14:32:48;4.60;;;3.05;;
9420;SDS011;4749;51.398;5.466;2023-05-10T14:35:15;4.72;;;3.15;;
9420;SDS011;4749;51.398;5.466;2023-05-10T14:37:45;3.60;;;2.50;;
9420;SDS011;4749;51.398;5.466;2023-05-10T14:40:12;3.75;;;2.30;;
9420;SDS011;4749;51.398;5.466;2023-05-10T14:42:40;2.53;;;1.67;;
9420;SDS011;4749;51.398;5.466;2023-05-10T14:45:09;2.20;;;1.70;;
9420;SDS011;4749;51.398;5.466;2023-05-10T14:47:38;2.92;;;2.20;;
9420;SDS011;4749;51.398;5.466;2023-05-10T14:50:05;2.75;;;2.15;;
9420;SDS011;4749;51.398;5.466;2023-05-10T14:52:33;5.18;;;3.33;;
9420;SDS011;4749;51.398;5.466;2023-05-10T14:55:00;5.40;;;3.28;;
9420;SDS011;4749;51.398;5.466;2023-05-10T14:57:27;4.57;;;3.40;;
9420;SDS011;4749;51.398;5.466;2023-05-10T14:59:55;4.88;;;3.80;;
9420;SDS011;4749;51.398;5.466;2023-05-10T15:02:23;6.75;;;3.70;;
9420;SDS011;4749;51.398;5.466;2023-05-10T15:04:51;5.15;;;3.47;;
9420;SDS011;4749;51.398;5.466;2023-05-10T15:07:18;5.53;;;3.45;;
9420;SDS011;4749;51.398;5.466;2023-05-10T15:09:45;4.60;;;3.40;;
9420;SDS011;4749;51.398;5.466;2023-05-10T15:12:13;4.68;;;3.60;;
9420;SDS011;4749;51.398;5.466;2023-05-10T15:14:40;5.20;;;3.90;;
9420;SDS011;4749;51.398;5.466;2023-05-10T15:17:07;5.47;;;4.00;;
9420;SDS011;4749;51.398;5.466;2023-05-10T15:19:34;6.65;;;4.18;;
9420;SDS011;4749;51.398;5.466;2023-05-10T15:22:03;4.40;;;3.65;;
9420;SDS011;4749;51.398;5.466;2023-05-10T15:24:31;8.13;;;4.50;;
9420;SDS011;4749;51.398;5.466;2023-05-10T15:26:58;6.97;;;4.63;;
9420;SDS011;4749;51.398;5.466;2023-05-10T15:29:26;5.40;;;4.47;;
9420;SDS011;4749;51.398;5.466;2023-05-10T15:31:53;10.23;;;4.47;;
9420;SDS011;4749;51.398;5.466;2023-05-10T15:34:20;8.10;;;4.45;;
9420;SDS011;4749;51.398;5.466;2023-05-10T15:36:47;6.38;;;4.30;;